createdAt,value
2019-01-12T00:01:17.087Z,99993.00
2019-01-12T00:03:22.119Z,99984.00
2019-01-12T00:05:27.201Z,99992.00
2019-01-12T00:07:32.243Z,99986.00
2019-01-12T00:09:37.136Z,99981.00
2019-01-12T00:11:42.036Z,99977.00
2019-01-12T00:13:47.051Z,99973.00
2019-01-12T00:15:52.461Z,99972.00
2019-01-12T00:17:57.503Z,99967.00
2019-01-12T00:20:02.516Z,99971.00
2019-01-12T00:22:07.611Z,99973.00
2019-01-12T00:24:12.688Z,99973.00
2019-01-12T00:26:17.728Z,99976.00
2019-01-12T00:28:22.711Z,99970.00
2019-01-12T00:30:27.684Z,99968.00
2019-01-12T00:32:32.724Z,99966.00
2019-01-12T00:34:37.608Z,99962.00
2019-01-12T00:36:42.701Z,99973.00
2019-01-12T00:38:47.638Z,99965.00
2019-01-12T00:40:52.598Z,99963.00
2019-01-12T00:42:57.484Z,99965.00
2019-01-12T00:45:02.580Z,99965.00
2019-01-12T00:47:07.596Z,99973.00
2019-01-12T00:49:12.661Z,99968.00
2019-01-12T00:51:17.752Z,99965.00
2019-01-12T00:53:23.030Z,99973.00
2019-01-12T00:55:28.225Z,99969.00
2019-01-12T00:57:33.264Z,99968.00
2019-01-12T00:59:38.201Z,99977.00
2019-01-12T01:01:43.272Z,99968.00
2019-01-12T01:03:48.328Z,99972.00
2019-01-12T01:05:53.201Z,99980.00
2019-01-12T01:07:58.275Z,99966.00
2019-01-12T01:10:03.504Z,99976.00
2019-01-12T01:12:08.455Z,99976.00
2019-01-12T01:14:13.501Z,99965.00
2019-01-12T01:16:18.607Z,99972.00
2019-01-12T01:18:23.655Z,99977.00
2019-01-12T01:20:29.046Z,99976.00
2019-01-12T01:22:34.133Z,99965.00
2019-01-12T01:24:45.571Z,99971.00
2019-01-12T01:26:46.074Z,99974.00
2019-01-12T01:28:51.143Z,99968.00
2019-01-12T01:30:56.246Z,99968.00
2019-01-12T01:33:01.639Z,99971.00
2019-01-12T01:35:07.596Z,99967.00
2019-01-12T01:37:12.694Z,99969.00
2019-01-12T01:39:17.960Z,99982.00
2019-01-12T01:41:22.909Z,99975.00
2019-01-12T01:43:27.864Z,99970.00
2019-01-12T01:45:32.972Z,99978.00
2019-01-12T01:47:38.009Z,99976.00
2019-01-12T01:49:43.121Z,99981.00
2019-01-12T01:51:48.041Z,99987.00
2019-01-12T01:53:53.167Z,99978.00
2019-01-12T01:55:58.315Z,99990.00
2019-01-12T01:58:03.308Z,99982.00
2019-01-12T02:00:21.219Z,99976.00
2019-01-12T02:02:27.556Z,99984.00
2019-01-12T02:04:35.555Z,99984.00
2019-01-12T02:06:48.210Z,99973.00
2019-01-12T02:08:53.123Z,99974.00
2019-01-12T02:10:58.724Z,99970.00
2019-01-12T02:13:03.795Z,99974.00
2019-01-12T02:15:10.538Z,99965.00
2019-01-12T02:17:15.951Z,99958.00
2019-01-12T02:19:20.860Z,99968.00
2019-01-12T02:21:25.965Z,99970.00
2019-01-12T02:23:31.037Z,99956.00
2019-01-12T02:25:36.070Z,99966.00
2019-01-12T02:27:41.511Z,99965.00
2019-01-12T02:29:46.525Z,99968.00
2019-01-12T02:31:51.479Z,99964.00
2019-01-12T02:33:56.580Z,99950.00
2019-01-12T02:36:01.626Z,99944.00
2019-01-12T02:38:06.670Z,99953.00
2019-01-12T02:40:11.767Z,99958.00
2019-01-12T02:42:16.837Z,99944.00
2019-01-12T02:44:22.110Z,99951.00
2019-01-12T02:46:27.163Z,99949.00
2019-01-12T02:48:32.034Z,99944.00
2019-01-12T02:50:37.305Z,99943.00
2019-01-12T02:52:42.355Z,99940.00
2019-01-12T02:54:47.246Z,99936.00
2019-01-12T02:56:52.482Z,99938.00
2019-01-12T02:58:57.423Z,99936.00
2019-01-12T03:01:02.548Z,99942.00
2019-01-12T03:03:08.677Z,99940.00
2019-01-12T03:05:14.341Z,99924.00
2019-01-12T03:07:19.416Z,99936.00
2019-01-12T03:09:25.067Z,99931.00
2019-01-12T03:11:30.055Z,99927.00
2019-01-12T03:13:35.183Z,99932.00
2019-01-12T03:15:40.567Z,99934.00
2019-01-12T03:17:45.686Z,99934.00
2019-01-12T03:19:50.736Z,99925.00
2019-01-12T03:21:55.900Z,99921.00
2019-01-12T03:24:00.864Z,99916.00
2019-01-12T03:26:06.082Z,99920.00
2019-01-12T03:28:11.141Z,99912.00
2019-01-12T03:30:18.603Z,99914.00
2019-01-12T03:32:23.585Z,99910.00
2019-01-12T03:34:28.599Z,99910.00
2019-01-12T03:36:33.583Z,99913.00
2019-01-12T03:38:38.597Z,99907.00
2019-01-12T03:40:43.566Z,99909.00
2019-01-12T03:42:48.705Z,99906.00
2019-01-12T03:44:53.659Z,99906.00
2019-01-12T03:46:58.612Z,99901.00
2019-01-12T03:49:03.672Z,99894.00
2019-01-12T03:51:08.802Z,99891.00
2019-01-12T03:53:13.844Z,99887.00
2019-01-12T03:55:25.603Z,99889.00
2019-01-12T03:57:25.792Z,99885.00
2019-01-12T03:59:30.825Z,99889.00
2019-01-12T04:01:36.154Z,99888.00
2019-01-12T04:03:41.067Z,99891.00
2019-01-12T04:05:46.017Z,99888.00
2019-01-12T04:07:51.557Z,99895.00
2019-01-12T04:09:56.521Z,99885.00
2019-01-12T04:12:01.480Z,99882.00
2019-01-12T04:14:06.944Z,99891.00
2019-01-12T04:16:11.959Z,99886.00
2019-01-12T04:18:16.987Z,99878.00
2019-01-12T04:20:22.018Z,99882.00
2019-01-12T04:22:27.000Z,99875.00
2019-01-12T04:24:31.881Z,99888.00
2019-01-12T04:26:37.122Z,99885.00
2019-01-12T04:28:42.446Z,99869.00
2019-01-12T04:30:47.435Z,99876.00
2019-01-12T04:32:52.443Z,99874.00
2019-01-12T04:34:57.309Z,99874.00
2019-01-12T04:37:02.301Z,99874.00
2019-01-12T04:39:09.627Z,99867.00
2019-01-12T04:41:14.693Z,99870.00
2019-01-12T04:43:19.603Z,99859.00
2019-01-12T04:45:24.720Z,99866.00
2019-01-12T04:47:30.404Z,99864.00
2019-01-12T04:49:35.517Z,99867.00
2019-01-12T04:51:40.475Z,99862.00
2019-01-12T04:53:45.479Z,99860.00
2019-01-12T04:55:50.480Z,99867.00
2019-01-12T04:57:55.846Z,99871.00
2019-01-12T05:00:00.753Z,99871.00
2019-01-12T05:02:05.979Z,99872.00
2019-01-12T05:04:10.922Z,99867.00
2019-01-12T05:06:15.884Z,99872.00
2019-01-12T05:08:20.868Z,99871.00
2019-01-12T05:10:25.921Z,99869.00
2019-01-12T05:12:30.883Z,99865.00
2019-01-12T05:14:35.791Z,99873.00
2019-01-12T05:16:40.835Z,99868.00
2019-01-12T05:18:45.727Z,99876.00
2019-01-12T05:20:51.131Z,99878.00
2019-01-12T05:22:56.062Z,99869.00
2019-01-12T05:25:01.012Z,99872.00
2019-01-12T05:27:06.095Z,99874.00
2019-01-12T05:29:11.165Z,99872.00
2019-01-12T05:31:16.227Z,99862.00
2019-01-12T05:33:21.198Z,99872.00
2019-01-12T05:35:26.217Z,99873.00
2019-01-12T05:37:31.275Z,99875.00
2019-01-12T05:39:36.246Z,99874.00
2019-01-12T05:41:41.137Z,99873.00
2019-01-12T05:43:46.191Z,99873.00
2019-01-12T05:45:51.520Z,99871.00
2019-01-12T05:47:56.570Z,99870.00
2019-01-12T05:50:01.759Z,99879.00
2019-01-12T05:52:06.869Z,99876.00
2019-01-12T05:54:12.176Z,99874.00
2019-01-12T05:56:17.286Z,99870.00
2019-01-12T05:58:22.180Z,99878.00
2019-01-12T06:00:27.270Z,99882.00
2019-01-12T06:02:32.138Z,99882.00
2019-01-12T06:04:37.190Z,99882.00
2019-01-12T06:06:42.107Z,99886.00
2019-01-12T06:08:46.988Z,99887.00
2019-01-12T06:10:52.267Z,99871.00
2019-01-12T06:12:57.168Z,99872.00
2019-01-12T06:15:02.186Z,99874.00
2019-01-12T06:17:07.132Z,99868.00
2019-01-12T06:19:12.295Z,99866.00
2019-01-12T06:21:17.316Z,99881.00
2019-01-12T06:23:22.704Z,99871.00
2019-01-12T06:25:27.885Z,99863.00
2019-01-12T06:27:32.975Z,99873.00
2019-01-12T06:29:38.374Z,99862.00
2019-01-12T06:31:43.398Z,99863.00
2019-01-12T06:33:48.284Z,99862.00
2019-01-12T06:35:53.262Z,99866.00
2019-01-12T06:37:58.278Z,99856.00
2019-01-12T06:40:03.191Z,99861.00
2019-01-12T06:42:08.128Z,99854.00
2019-01-12T06:44:13.093Z,99860.00
2019-01-12T06:46:18.124Z,99859.00
2019-01-12T06:48:23.420Z,99848.00
2019-01-12T06:50:28.447Z,99856.00
2019-01-12T06:52:33.379Z,99850.00
2019-01-12T06:54:38.339Z,99849.00
2019-01-12T06:56:43.398Z,99854.00
2019-01-12T06:58:48.520Z,99847.00
2019-01-12T07:00:53.463Z,99833.00
2019-01-12T07:02:58.665Z,99823.00
2019-01-12T07:05:03.918Z,99825.00
2019-01-12T07:07:08.939Z,99825.00
2019-01-12T07:09:14.041Z,99823.00
2019-01-12T07:11:19.185Z,99806.00
2019-01-12T07:13:24.138Z,99805.00
2019-01-12T07:15:29.107Z,99802.00
2019-01-12T07:17:34.126Z,99805.00
2019-01-12T07:19:39.118Z,99797.00
2019-01-12T07:21:44.418Z,99797.00
2019-01-12T07:23:49.303Z,99799.00
2019-01-12T07:25:54.267Z,99803.00
2019-01-12T07:27:59.490Z,99796.00
2019-01-12T07:30:06.738Z,99792.00
2019-01-12T07:32:11.644Z,99801.00
2019-01-12T07:34:16.506Z,99794.00
2019-01-12T07:36:21.524Z,99797.00
2019-01-12T07:38:26.481Z,99799.00
2019-01-12T07:40:31.740Z,99796.00
2019-01-12T07:42:36.997Z,99794.00
2019-01-12T07:44:42.029Z,99796.00
2019-01-12T07:46:47.047Z,99799.00
2019-01-12T07:48:51.983Z,99793.00
2019-01-12T07:50:56.945Z,99792.00
2019-01-12T07:53:01.890Z,99785.00
2019-01-12T07:55:08.056Z,99788.00
2019-01-12T07:57:13.210Z,99785.00
2019-01-12T07:59:18.705Z,99783.00
2019-01-12T08:01:23.599Z,99775.00
2019-01-12T08:03:28.618Z,99764.00
2019-01-12T08:05:33.660Z,99769.00
2019-01-12T08:07:38.636Z,99765.00
2019-01-12T08:09:43.592Z,99763.00
2019-01-12T08:11:48.937Z,99773.00
2019-01-12T08:13:54.103Z,99777.00
2019-01-12T08:15:59.065Z,99762.00
2019-01-12T08:18:04.178Z,99764.00
2019-01-12T08:20:10.186Z,99765.00
2019-01-12T08:22:15.151Z,99759.00
2019-01-12T08:24:20.169Z,99751.00
2019-01-12T08:26:30.961Z,99746.00
2019-01-12T08:28:32.057Z,99745.00
2019-01-12T08:30:37.162Z,99745.00
2019-01-12T08:32:42.308Z,99743.00
2019-01-12T08:34:47.264Z,99735.00
2019-01-12T08:36:52.253Z,99739.00
2019-01-12T08:38:57.166Z,99735.00
2019-01-12T08:41:02.470Z,99737.00
2019-01-12T08:43:07.631Z,99722.00
2019-01-12T08:45:13.024Z,99720.00
2019-01-12T08:47:18.028Z,99708.00
2019-01-12T08:49:23.036Z,99712.00
2019-01-12T08:51:28.082Z,99704.00
2019-01-12T08:53:33.101Z,99707.00
2019-01-12T08:55:38.352Z,99707.00
2019-01-12T08:57:43.626Z,99713.00
2019-01-12T08:59:48.505Z,99713.00
2019-01-12T09:01:53.693Z,99726.00
2019-01-12T09:03:58.550Z,99731.00
2019-01-12T09:06:03.889Z,99729.00
2019-01-12T09:08:08.914Z,99730.00
2019-01-12T09:10:17.715Z,99722.00
2019-01-12T09:12:22.589Z,99699.00
2019-01-12T09:14:27.611Z,99702.00
2019-01-12T09:16:32.589Z,99702.00
2019-01-12T09:18:37.657Z,99696.00
2019-01-12T09:20:42.659Z,99686.00
2019-01-12T09:22:47.836Z,99699.00
2019-01-12T09:24:52.806Z,99680.00
2019-01-12T09:26:57.903Z,99674.00
2019-01-12T09:29:02.922Z,99675.00
2019-01-12T09:31:07.964Z,99667.00
2019-01-12T09:33:12.945Z,99663.00
2019-01-12T09:35:18.335Z,99660.00
2019-01-12T09:37:23.355Z,99670.00
2019-01-12T09:39:28.471Z,99666.00
2019-01-12T09:41:33.375Z,99671.00
2019-01-12T09:43:38.399Z,99669.00
2019-01-12T09:45:43.535Z,99669.00
2019-01-12T09:47:48.688Z,99664.00
2019-01-12T09:49:53.641Z,99665.00
2019-01-12T09:51:58.696Z,99653.00
2019-01-12T09:54:03.739Z,99662.00
2019-01-12T09:56:08.853Z,99655.00
2019-01-12T09:58:13.831Z,99662.00
2019-01-12T10:00:26.830Z,99654.00
2019-01-12T10:02:31.923Z,99633.00
2019-01-12T10:04:36.891Z,99628.00
2019-01-12T10:06:42.009Z,99626.00
2019-01-12T10:08:47.072Z,99616.00
2019-01-12T10:10:52.039Z,99604.00
2019-01-12T10:12:56.993Z,99599.00
2019-01-12T10:15:01.995Z,99591.00
2019-01-12T10:17:06.962Z,99603.00
2019-01-12T10:19:12.173Z,99605.00
2019-01-12T10:21:17.674Z,99594.00
2019-01-12T10:23:22.647Z,99592.00
2019-01-12T10:25:27.524Z,99588.00
2019-01-12T10:27:33.712Z,99580.00
2019-01-12T10:29:39.003Z,99573.00
2019-01-12T10:31:43.941Z,99588.00
2019-01-12T10:33:49.007Z,99574.00
2019-01-12T10:35:54.120Z,99571.00
2019-01-12T10:37:59.363Z,99570.00
2019-01-12T10:40:06.731Z,99567.00
2019-01-12T10:42:11.751Z,99560.00
2019-01-12T10:44:16.812Z,99560.00
2019-01-12T10:46:22.196Z,99566.00
2019-01-12T10:48:27.414Z,99580.00
2019-01-12T10:50:34.587Z,99551.00
2019-01-12T10:52:39.622Z,99533.00
2019-01-12T10:54:44.661Z,99541.00
2019-01-12T10:56:50.147Z,99524.00
2019-01-12T10:58:56.321Z,99533.00
2019-01-12T11:01:01.599Z,99535.00
2019-01-12T11:03:07.153Z,99533.00
2019-01-12T11:05:12.523Z,99534.00
2019-01-12T11:07:21.257Z,99524.00
2019-01-12T11:09:26.357Z,99519.00
2019-01-12T11:11:31.334Z,99528.00
2019-01-12T11:13:36.371Z,99516.00
2019-01-12T11:15:41.480Z,99505.00
2019-01-12T11:17:46.674Z,99514.00
2019-01-12T11:19:51.721Z,99498.00
2019-01-12T11:21:56.806Z,99498.00
2019-01-12T11:24:02.520Z,99499.00
2019-01-12T11:26:07.618Z,99489.00
2019-01-12T11:28:12.776Z,99490.00
2019-01-12T11:30:20.131Z,99475.00
2019-01-12T11:32:25.355Z,99477.00
2019-01-12T11:34:30.634Z,99466.00
2019-01-12T11:36:35.673Z,99468.00
2019-01-12T11:38:40.945Z,99470.00
2019-01-12T11:40:45.960Z,99467.00
2019-01-12T11:42:52.467Z,99462.00
2019-01-12T11:44:57.383Z,99460.00
2019-01-12T11:47:02.414Z,99450.00
2019-01-12T11:49:07.468Z,99448.00
2019-01-12T11:51:14.448Z,99435.00
2019-01-12T11:53:19.754Z,99431.00
2019-01-12T11:55:24.857Z,99420.00
2019-01-12T11:57:29.756Z,99427.00
2019-01-12T11:59:34.810Z,99421.00
2019-01-12T12:01:39.821Z,99415.00
2019-01-12T12:03:44.943Z,99409.00
2019-01-12T12:05:49.972Z,99393.00
2019-01-12T12:07:55.827Z,99386.00
2019-01-12T12:10:01.099Z,99383.00
2019-01-12T12:12:06.237Z,99381.00
2019-01-12T12:14:11.598Z,99383.00
2019-01-12T12:16:16.618Z,99382.00
2019-01-12T12:18:21.680Z,99366.00
2019-01-12T12:20:28.938Z,99355.00
2019-01-12T12:22:33.870Z,99352.00
2019-01-12T12:24:38.836Z,99358.00
2019-01-12T12:26:43.929Z,99350.00
2019-01-12T12:28:48.985Z,99353.00
2019-01-12T12:30:54.074Z,99347.00
2019-01-12T12:32:59.406Z,99331.00
2019-01-12T12:35:05.085Z,99324.00
2019-01-12T12:37:10.110Z,99324.00
2019-01-12T12:39:15.036Z,99316.00
2019-01-12T12:41:20.117Z,99299.00
2019-01-12T12:43:25.481Z,99294.00
2019-01-12T12:45:36.214Z,99290.00
2019-01-12T12:47:41.313Z,99279.00
2019-01-12T12:49:46.381Z,99281.00
2019-01-12T12:51:51.319Z,99277.00
2019-01-12T12:53:56.342Z,99272.00
2019-01-12T12:56:01.609Z,99271.00
2019-01-12T12:58:07.702Z,99263.00
2019-01-12T13:00:19.791Z,99247.00
2019-01-12T13:02:24.746Z,99255.00
2019-01-12T13:04:29.721Z,99247.00
2019-01-12T13:06:34.805Z,99257.00
2019-01-12T13:08:39.945Z,99249.00
2019-01-12T13:10:45.071Z,99242.00
2019-01-12T13:12:50.283Z,99245.00
2019-01-12T13:14:55.323Z,99228.00
2019-01-12T13:17:00.449Z,99242.00
2019-01-12T13:19:05.571Z,99230.00
2019-01-12T13:21:10.657Z,99247.00
2019-01-12T13:23:15.755Z,99230.00
2019-01-12T13:25:21.140Z,99225.00
2019-01-12T13:27:26.213Z,99212.00
2019-01-12T13:29:31.253Z,99208.00
2019-01-12T13:31:36.383Z,99204.00
2019-01-12T13:33:41.485Z,99199.00
2019-01-12T13:35:46.506Z,99198.00
2019-01-12T13:37:51.740Z,99197.00
2019-01-12T13:39:56.787Z,99188.00
2019-01-12T13:42:03.877Z,99186.00
2019-01-12T13:44:09.013Z,99195.00
2019-01-12T13:46:14.106Z,99180.00
2019-01-12T13:48:19.074Z,99185.00
2019-01-12T13:50:26.709Z,99181.00
2019-01-12T13:52:31.693Z,99170.00
2019-01-12T13:54:36.655Z,99163.00
2019-01-12T13:56:41.607Z,99173.00
2019-01-12T13:58:46.567Z,99172.00
2019-01-12T14:00:51.637Z,99165.00
2019-01-12T14:02:56.801Z,99157.00
2019-01-12T14:05:01.780Z,99157.00
2019-01-12T14:07:06.966Z,99158.00
2019-01-12T14:09:12.031Z,99150.00
2019-01-12T14:11:17.428Z,99147.00
2019-01-12T14:13:22.351Z,99150.00
2019-01-12T14:15:27.978Z,99144.00
2019-01-12T14:17:32.917Z,99141.00
2019-01-12T14:19:37.976Z,99147.00
2019-01-12T14:21:43.091Z,99144.00
2019-01-12T14:23:48.705Z,99139.00
2019-01-12T14:25:53.755Z,99136.00
2019-01-12T14:27:58.717Z,99130.00
2019-01-12T14:30:05.069Z,99143.00
2019-01-12T14:32:10.012Z,99139.00
2019-01-12T14:34:14.937Z,99131.00
2019-01-12T14:36:20.010Z,99126.00
2019-01-12T14:38:25.010Z,99138.00
2019-01-12T14:40:30.054Z,99126.00
2019-01-12T14:42:34.988Z,99121.00
2019-01-12T14:44:40.036Z,99118.00
2019-01-12T14:46:45.005Z,99123.00
2019-01-12T14:48:50.055Z,99128.00
2019-01-12T14:50:55.101Z,99117.00
2019-01-12T14:53:00.222Z,99111.00
2019-01-12T14:55:06.720Z,99108.00
2019-01-12T14:57:11.845Z,99115.00
2019-01-12T14:59:16.760Z,99105.00
2019-01-12T15:01:21.624Z,99107.00
2019-01-12T15:03:26.659Z,99117.00
2019-01-12T15:05:33.982Z,99120.00
2019-01-12T15:07:38.987Z,99115.00
2019-01-12T15:09:43.861Z,99108.00
2019-01-12T15:11:48.951Z,99106.00
2019-01-12T15:13:54.134Z,99099.00
2019-01-12T15:15:59.073Z,99116.00
2019-01-12T15:18:04.541Z,99114.00
2019-01-12T15:20:14.342Z,99110.00
2019-01-12T15:22:19.896Z,99116.00
2019-01-12T15:24:24.904Z,99124.00
2019-01-12T15:26:29.885Z,99114.00
2019-01-12T15:28:34.947Z,99115.00
2019-01-12T15:30:40.367Z,99113.00
2019-01-12T15:32:45.416Z,99114.00
2019-01-12T15:34:50.729Z,99099.00
2019-01-12T15:36:55.884Z,99102.00
2019-01-12T15:39:01.688Z,99098.00
2019-01-12T15:41:06.901Z,99109.00
2019-01-12T15:43:12.052Z,99098.00
2019-01-12T15:45:20.562Z,99093.00
2019-01-12T15:47:25.506Z,99100.00
2019-01-12T15:49:30.469Z,99096.00
2019-01-12T15:51:35.364Z,99088.00
2019-01-12T15:53:40.322Z,99075.00
2019-01-12T15:55:45.418Z,99082.00
2019-01-12T15:57:50.511Z,99072.00
2019-01-12T15:59:56.304Z,99066.00
2019-01-12T16:02:03.766Z,99084.00
2019-01-12T16:04:09.278Z,99067.00
2019-01-12T16:06:14.293Z,99069.00
2019-01-12T16:08:20.354Z,99079.00
2019-01-12T16:10:25.521Z,99068.00
2019-01-12T16:12:30.466Z,99062.00
2019-01-12T16:14:35.559Z,99061.00
2019-01-12T16:16:40.791Z,99055.00
2019-01-12T16:18:46.562Z,99053.00
2019-01-12T16:20:52.020Z,99056.00
2019-01-12T16:22:57.157Z,99054.00
2019-01-12T16:25:02.206Z,99060.00
2019-01-12T16:27:07.295Z,99063.00
2019-01-12T16:29:12.954Z,99064.00
2019-01-12T16:31:17.974Z,99051.00
2019-01-12T16:33:23.030Z,99049.00
2019-01-12T16:35:28.159Z,99060.00
2019-01-12T16:37:33.011Z,99051.00
2019-01-12T16:39:38.150Z,99049.00
2019-01-12T16:41:43.102Z,99032.00
2019-01-12T16:43:48.075Z,99036.00
2019-01-12T16:45:52.946Z,99023.00
2019-01-12T16:47:57.971Z,99032.00
2019-01-12T16:50:03.035Z,99021.00
2019-01-12T16:52:08.117Z,99024.00
2019-01-12T16:54:13.184Z,99020.00
2019-01-12T16:56:18.168Z,99020.00
2019-01-12T16:58:30.182Z,99012.00
2019-01-12T17:00:31.452Z,99025.00
2019-01-12T17:02:36.562Z,99008.00
2019-01-12T17:04:41.858Z,99010.00
2019-01-12T17:06:46.963Z,99006.00
2019-01-12T17:08:51.842Z,98998.00
2019-01-12T17:10:57.246Z,99003.00
2019-01-12T17:13:02.345Z,98999.00
2019-01-12T17:15:08.714Z,98989.00
2019-01-12T17:17:13.822Z,98995.00
2019-01-12T17:19:18.856Z,98998.00
2019-01-12T17:21:23.752Z,98995.00
2019-01-12T17:23:28.805Z,98989.00
2019-01-12T17:25:34.503Z,98989.00
2019-01-12T17:27:39.611Z,98984.00
2019-01-12T17:29:45.569Z,98975.00
2019-01-12T17:31:50.458Z,98973.00
2019-01-12T17:33:55.490Z,98977.00
2019-01-12T17:36:00.379Z,98981.00
2019-01-12T17:38:06.827Z,98971.00
2019-01-12T17:40:13.283Z,98982.00
2019-01-12T17:42:18.556Z,98977.00
2019-01-12T17:44:23.435Z,98968.00
2019-01-12T17:46:28.484Z,98975.00
2019-01-12T17:48:33.437Z,98974.00
2019-01-12T17:50:38.484Z,98981.00
2019-01-12T17:52:43.671Z,98984.00
2019-01-12T17:54:48.771Z,98974.00
2019-01-12T17:56:54.516Z,98984.00
2019-01-12T17:58:59.570Z,98979.00
2019-01-12T18:01:05.941Z,98969.00
2019-01-12T18:03:11.209Z,98974.00
2019-01-12T18:05:16.391Z,98980.00
2019-01-12T18:07:21.439Z,98986.00
2019-01-12T18:09:26.418Z,98989.00
2019-01-12T18:11:31.738Z,98982.00
2019-01-12T18:13:37.066Z,98992.00
2019-01-12T18:15:42.219Z,98988.00
2019-01-12T18:17:47.588Z,98992.00
2019-01-12T18:19:52.673Z,98988.00
2019-01-12T18:21:57.807Z,98990.00
2019-01-12T18:24:02.871Z,98988.00
2019-01-12T18:26:08.261Z,98982.00
2019-01-12T18:28:13.253Z,98985.00
2019-01-12T18:30:20.259Z,98993.00
2019-01-12T18:32:25.220Z,98995.00
2019-01-12T18:34:30.227Z,98988.00
2019-01-12T18:36:35.280Z,98990.00
2019-01-12T18:38:40.228Z,98994.00
2019-01-12T18:40:45.302Z,98999.00
2019-01-12T18:42:50.496Z,99007.00
2019-01-12T18:44:55.517Z,99000.00
2019-01-12T18:47:00.746Z,99008.00
2019-01-12T18:49:05.979Z,98995.00
2019-01-12T18:51:11.047Z,99003.00
2019-01-12T18:53:16.067Z,98991.00
2019-01-12T18:55:21.265Z,98989.00
2019-01-12T18:57:26.323Z,98981.00
2019-01-12T18:59:31.301Z,98977.00
2019-01-12T19:01:36.351Z,98991.00
2019-01-12T19:03:41.387Z,98996.00
2019-01-12T19:05:46.378Z,98983.00
2019-01-12T19:07:51.419Z,98986.00
2019-01-12T19:09:56.385Z,98990.00
2019-01-12T19:12:01.563Z,98988.00
2019-01-12T19:14:06.887Z,99001.00
2019-01-12T19:16:12.178Z,99000.00
2019-01-12T19:18:17.556Z,99001.00
2019-01-12T19:20:22.680Z,99002.00
2019-01-12T19:22:27.806Z,98998.00
2019-01-12T19:24:32.913Z,99002.00
2019-01-12T19:26:38.238Z,99000.00
2019-01-12T19:28:43.227Z,98980.00
2019-01-12T19:30:48.364Z,98991.00
2019-01-12T19:32:53.488Z,98991.00
2019-01-12T19:34:58.599Z,98986.00
2019-01-12T19:37:03.842Z,98988.00
2019-01-12T19:39:10.223Z,98986.00
2019-01-12T19:41:15.229Z,98989.00
2019-01-12T19:43:20.210Z,98992.00
2019-01-12T19:45:25.235Z,98976.00
2019-01-12T19:47:30.246Z,98973.00
2019-01-12T19:49:35.160Z,98984.00
2019-01-12T19:51:40.196Z,98983.00
2019-01-12T19:53:45.361Z,98985.00
2019-01-12T19:55:50.449Z,98978.00
2019-01-12T19:57:55.515Z,98975.00
2019-01-12T20:00:00.385Z,98976.00
2019-01-12T20:02:05.582Z,98975.00
2019-01-12T20:04:11.070Z,98968.00
2019-01-12T20:06:17.119Z,98974.00
2019-01-12T20:08:22.540Z,98973.00
2019-01-12T20:10:27.790Z,98966.00
2019-01-12T20:12:32.932Z,98970.00
2019-01-12T20:14:38.244Z,98963.00
2019-01-12T20:16:43.281Z,98960.00
2019-01-12T20:18:48.205Z,98966.00
2019-01-12T20:20:53.297Z,98961.00
2019-01-12T20:22:58.721Z,98962.00
2019-01-12T20:25:04.086Z,98974.00
2019-01-12T20:27:09.117Z,98971.00
2019-01-12T20:29:20.878Z,98978.00
2019-01-12T20:32:42.637Z,98961.00
2019-01-12T20:35:19.651Z,98969.00
2019-01-12T20:38:58.679Z,98968.00
2019-01-12T20:41:39.841Z,98975.00
2019-01-12T20:44:42.938Z,98981.00
2019-01-12T20:47:23.209Z,98973.00
2019-01-12T20:49:51.390Z,98975.00
2019-01-12T20:52:49.049Z,98970.00
2019-01-12T20:55:34.888Z,98972.00
2019-01-12T20:58:01.103Z,98970.00
2019-01-12T21:01:12.639Z,98963.00
2019-01-12T21:04:19.590Z,98968.00
2019-01-12T21:06:39.083Z,98953.00
2019-01-12T21:09:22.887Z,98959.00
2019-01-12T21:12:23.762Z,98963.00
2019-01-12T21:15:09.287Z,98957.00
2019-01-12T21:17:17.131Z,98958.00
2019-01-12T21:19:22.149Z,98960.00
2019-01-12T21:21:27.369Z,98953.00
2019-01-12T21:23:32.442Z,98953.00
2019-01-12T21:25:37.438Z,98953.00
2019-01-12T21:27:42.327Z,98944.00
2019-01-12T21:29:47.430Z,98943.00
2019-01-12T21:31:52.555Z,98945.00
2019-01-12T21:33:57.661Z,98940.00
2019-01-12T21:36:02.931Z,98948.00
2019-01-12T21:38:56.547Z,98950.00
2019-01-12T21:41:01.590Z,98950.00
2019-01-12T21:43:06.563Z,98935.00
2019-01-12T21:45:13.576Z,98941.00
2019-01-12T21:47:18.604Z,98936.00
2019-01-12T21:49:23.481Z,98939.00
2019-01-12T21:51:28.879Z,98934.00
2019-01-12T21:53:33.970Z,98942.00
2019-01-12T21:55:38.882Z,98947.00
2019-01-12T21:57:43.998Z,98957.00
2019-01-12T21:59:49.099Z,98952.00
2019-01-12T22:01:54.184Z,98938.00
2019-01-12T22:03:59.611Z,98948.00
2019-01-12T22:06:05.065Z,98947.00
2019-01-12T22:10:40.389Z,98923.00
2019-01-12T22:12:45.621Z,98942.00
2019-01-12T22:14:50.686Z,98936.00
2019-01-12T22:16:56.000Z,98947.00
2019-01-12T22:19:02.129Z,98938.00
2019-01-12T22:21:07.489Z,98951.00
2019-01-12T22:23:12.525Z,98951.00
2019-01-12T22:25:17.651Z,98947.00
2019-01-12T22:27:23.029Z,98944.00
2019-01-12T22:29:27.984Z,98952.00
2019-01-12T22:31:33.040Z,98959.00
2019-01-12T22:33:38.185Z,98946.00
2019-01-12T22:35:43.479Z,98956.00
2019-01-12T22:37:48.600Z,98946.00
2019-01-12T22:39:53.609Z,98949.00
2019-01-12T22:41:58.638Z,98943.00
2019-01-12T22:44:03.770Z,98949.00
2019-01-12T22:46:08.899Z,98949.00
2019-01-12T22:48:13.984Z,98948.00
2019-01-12T22:50:19.271Z,98953.00
2019-01-12T22:52:24.298Z,98942.00
2019-01-12T22:54:29.696Z,98946.00
2019-01-12T22:56:35.287Z,98942.00
2019-01-12T22:58:40.220Z,98930.00
2019-01-12T23:01:14.296Z,98929.00
2019-01-12T23:03:20.065Z,98928.00
2019-01-12T23:05:25.091Z,98929.00
2019-01-12T23:07:30.108Z,98937.00
2019-01-12T23:09:35.337Z,98949.00
2019-01-12T23:11:40.837Z,98932.00
2019-01-12T23:13:45.793Z,98924.00
2019-01-12T23:15:50.832Z,98934.00
2019-01-12T23:17:56.310Z,98930.00
2019-01-12T23:20:01.253Z,98923.00
2019-01-12T23:22:06.912Z,98925.00
2019-01-12T23:24:11.979Z,98922.00
2019-01-12T23:26:17.025Z,98921.00
2019-01-12T23:28:22.378Z,98914.00
2019-01-12T23:30:28.083Z,98925.00
2019-01-12T23:32:33.040Z,98918.00
2019-01-12T23:34:38.401Z,98920.00
2019-01-12T23:36:43.501Z,98922.00
2019-01-12T23:38:48.528Z,98916.00
2019-01-12T23:40:53.550Z,98914.00
2019-01-12T23:42:58.643Z,98926.00
2019-01-12T23:45:03.885Z,98924.00
2019-01-12T23:47:08.854Z,98920.00
2019-01-12T23:49:13.977Z,98922.00
2019-01-12T23:51:18.994Z,98916.00
2019-01-12T23:53:24.065Z,98931.00
2019-01-12T23:55:29.420Z,98940.00
2019-01-12T23:57:34.536Z,98927.00
2019-01-12T23:59:39.525Z,98929.00
